sensor_id;sensor_type;location;lat;lon;timestamp;P1;durP1;ratioP1;P2;durP2;ratioP2
18526;SDS011;9393;42.158;24.748;2023-04-30T00:01:43;11.43;;;5.10;;
18526;SDS011;9393;42.158;24.748;2023-04-30T00:04:47;9.77;;;4.93;;
18526;SDS011;9393;42.158;24.748;2023-04-30T00:07:52;8.20;;;5.40;;
18526;SDS011;9393;42.158;24.748;2023-04-30T00:10:56;10.93;;;6.23;;
18526;SDS011;9393;42.158;24.748;2023-04-30T00:13:59;9.17;;;5.67;;
18526;SDS011;9393;42.158;24.748;2023-04-30T00:17:03;10.03;;;5.87;;
18526;SDS011;9393;42.158;24.748;2023-04-30T00:20:07;10.47;;;6.20;;
18526;SDS011;9393;42.158;24.748;2023-04-30T00:23:12;8.83;;;5.90;;
18526;SDS011;9393;42.158;24.748;2023-04-30T00:26:16;9.10;;;5.77;;
18526;SDS011;9393;42.158;24.748;2023-04-30T00:29:22;10.57;;;6.10;;
18526;SDS011;9393;42.158;24.748;2023-04-30T00:32:26;8.13;;;5.67;;
18526;SDS011;9393;42.158;24.748;2023-04-30T00:35:30;10.17;;;5.67;;
18526;SDS011;9393;42.158;24.748;2023-04-30T00:38:35;9.63;;;6.17;;
18526;SDS011;9393;42.158;24.748;2023-04-30T00:41:39;10.00;;;5.60;;
18526;SDS011;9393;42.158;24.748;2023-04-30T00:44:44;9.67;;;6.10;;
18526;SDS011;9393;42.158;24.748;2023-04-30T00:47:47;9.80;;;5.47;;
18526;SDS011;9393;42.158;24.748;2023-04-30T00:50:52;9.30;;;5.73;;
18526;SDS011;9393;42.158;24.748;2023-04-30T00:53:57;7.60;;;5.60;;
18526;SDS011;9393;42.158;24.748;2023-04-30T00:57:03;14.37;;;6.30;;
18526;SDS011;9393;42.158;24.748;2023-04-30T01:00:10;8.73;;;6.27;;
18526;SDS011;9393;42.158;24.748;2023-04-30T01:03:14;10.60;;;7.30;;
18526;SDS011;9393;42.158;24.748;2023-04-30T01:06:18;11.50;;;7.77;;
18526;SDS011;9393;42.158;24.748;2023-04-30T01:09:24;12.03;;;6.80;;
18526;SDS011;9393;42.158;24.748;2023-04-30T01:12:28;11.33;;;6.97;;
18526;SDS011;9393;42.158;24.748;2023-04-30T01:15:41;13.80;;;6.47;;
18526;SDS011;9393;42.158;24.748;2023-04-30T01:18:50;12.77;;;7.07;;
18526;SDS011;9393;42.158;24.748;2023-04-30T01:21:58;10.80;;;6.50;;
18526;SDS011;9393;42.158;24.748;2023-04-30T01:25:13;9.20;;;5.97;;
18526;SDS011;9393;42.158;24.748;2023-04-30T01:28:36;11.03;;;5.50;;
18526;SDS011;9393;42.158;24.748;2023-04-30T01:31:42;9.17;;;5.57;;
18526;SDS011;9393;42.158;24.748;2023-04-30T01:34:46;11.20;;;5.57;;
18526;SDS011;9393;42.158;24.748;2023-04-30T01:37:51;7.60;;;5.73;;
18526;SDS011;9393;42.158;24.748;2023-04-30T01:41:05;8.23;;;4.87;;
18526;SDS011;9393;42.158;24.748;2023-04-30T01:44:23;8.63;;;4.83;;
18526;SDS011;9393;42.158;24.748;2023-04-30T01:47:39;8.23;;;4.33;;
18526;SDS011;9393;42.158;24.748;2023-04-30T01:50:49;6.27;;;3.70;;
18526;SDS011;9393;42.158;24.748;2023-04-30T01:53:56;6.33;;;3.83;;
18526;SDS011;9393;42.158;24.748;2023-04-30T01:57:02;6.67;;;4.10;;
18526;SDS011;9393;42.158;24.748;2023-04-30T02:00:10;7.03;;;3.93;;
18526;SDS011;9393;42.158;24.748;2023-04-30T02:03:15;8.50;;;3.70;;
18526;SDS011;9393;42.158;24.748;2023-04-30T02:06:19;8.20;;;4.23;;
18526;SDS011;9393;42.158;24.748;2023-04-30T02:09:23;8.70;;;4.53;;
18526;SDS011;9393;42.158;24.748;2023-04-30T02:12:27;8.43;;;4.67;;
18526;SDS011;9393;42.158;24.748;2023-04-30T02:15:32;7.33;;;4.20;;
18526;SDS011;9393;42.158;24.748;2023-04-30T02:18:36;6.67;;;4.07;;
18526;SDS011;9393;42.158;24.748;2023-04-30T02:21:40;7.07;;;4.53;;
18526;SDS011;9393;42.158;24.748;2023-04-30T02:24:43;6.63;;;4.20;;
18526;SDS011;9393;42.158;24.748;2023-04-30T02:27:48;6.83;;;4.13;;
18526;SDS011;9393;42.158;24.748;2023-04-30T02:30:54;5.13;;;3.90;;
18526;SDS011;9393;42.158;24.748;2023-04-30T02:33:57;7.63;;;3.90;;
18526;SDS011;9393;42.158;24.748;2023-04-30T02:37:01;7.10;;;3.73;;
18526;SDS011;9393;42.158;24.748;2023-04-30T02:40:05;5.47;;;4.03;;
18526;SDS011;9393;42.158;24.748;2023-04-30T02:43:10;6.27;;;3.80;;
18526;SDS011;9393;42.158;24.748;2023-04-30T02:46:15;10.80;;;5.00;;
18526;SDS011;9393;42.158;24.748;2023-04-30T02:49:19;10.03;;;6.00;;
18526;SDS011;9393;42.158;24.748;2023-04-30T02:52:23;9.23;;;6.40;;
18526;SDS011;9393;42.158;24.748;2023-04-30T02:55:27;9.33;;;6.33;;
18526;SDS011;9393;42.158;24.748;2023-04-30T02:58:31;12.73;;;6.87;;
18526;SDS011;9393;42.158;24.748;2023-04-30T03:01:36;9.03;;;6.63;;
18526;SDS011;9393;42.158;24.748;2023-04-30T03:04:40;12.60;;;7.30;;
18526;SDS011;9393;42.158;24.748;2023-04-30T03:07:44;13.13;;;7.40;;
18526;SDS011;9393;42.158;24.748;2023-04-30T03:10:47;11.20;;;7.10;;
18526;SDS011;9393;42.158;24.748;2023-04-30T03:13:51;13.40;;;6.70;;
18526;SDS011;9393;42.158;24.748;2023-04-30T03:16:56;14.47;;;7.87;;
18526;SDS011;9393;42.158;24.748;2023-04-30T03:20:01;12.73;;;8.33;;
18526;SDS011;9393;42.158;24.748;2023-04-30T03:23:05;9.53;;;6.50;;
18526;SDS011;9393;42.158;24.748;2023-04-30T03:26:09;9.93;;;6.73;;
18526;SDS011;9393;42.158;24.748;2023-04-30T03:29:12;8.23;;;6.57;;
18526;SDS011;9393;42.158;24.748;2023-04-30T03:32:18;10.53;;;6.77;;
18526;SDS011;9393;42.158;24.748;2023-04-30T03:35:21;16.50;;;7.93;;
18526;SDS011;9393;42.158;24.748;2023-04-30T03:38:25;11.37;;;7.87;;
18526;SDS011;9393;42.158;24.748;2023-04-30T03:41:29;12.77;;;7.13;;
18526;SDS011;9393;42.158;24.748;2023-04-30T03:44:33;11.57;;;6.90;;
18526;SDS011;9393;42.158;24.748;2023-04-30T03:47:38;11.53;;;6.60;;
18526;SDS011;9393;42.158;24.748;2023-04-30T03:50:42;10.10;;;6.80;;
18526;SDS011;9393;42.158;24.748;2023-04-30T03:53:47;13.37;;;7.27;;
18526;SDS011;9393;42.158;24.748;2023-04-30T03:56:51;16.43;;;7.03;;
18526;SDS011;9393;42.158;24.748;2023-04-30T03:59:54;8.30;;;6.27;;
18526;SDS011;9393;42.158;24.748;2023-04-30T04:03:00;9.53;;;6.10;;
18526;SDS011;9393;42.158;24.748;2023-04-30T04:06:03;12.03;;;6.67;;
18526;SDS011;9393;42.158;24.748;2023-04-30T04:09:07;12.40;;;6.50;;
18526;SDS011;9393;42.158;24.748;2023-04-30T04:12:15;14.37;;;7.33;;
18526;SDS011;9393;42.158;24.748;2023-04-30T04:15:19;14.33;;;7.70;;
18526;SDS011;9393;42.158;24.748;2023-04-30T04:18:24;11.20;;;7.90;;
18526;SDS011;9393;42.158;24.748;2023-04-30T04:21:27;12.50;;;7.43;;
18526;SDS011;9393;42.158;24.748;2023-04-30T04:24:32;14.17;;;8.70;;
18526;SDS011;9393;42.158;24.748;2023-04-30T04:27:36;13.07;;;8.07;;
18526;SDS011;9393;42.158;24.748;2023-04-30T04:30:39;11.60;;;8.27;;
18526;SDS011;9393;42.158;24.748;2023-04-30T04:33:45;14.60;;;9.13;;
18526;SDS011;9393;42.158;24.748;2023-04-30T04:36:48;14.70;;;8.47;;
18526;SDS011;9393;42.158;24.748;2023-04-30T04:39:53;9.87;;;7.70;;
18526;SDS011;9393;42.158;24.748;2023-04-30T04:42:57;12.23;;;8.00;;
18526;SDS011;9393;42.158;24.748;2023-04-30T04:46:00;16.33;;;9.50;;
18526;SDS011;9393;42.158;24.748;2023-04-30T04:49:06;17.77;;;8.60;;
18526;SDS011;9393;42.158;24.748;2023-04-30T04:52:10;11.73;;;8.50;;
18526;SDS011;9393;42.158;24.748;2023-04-30T04:55:13;14.93;;;8.77;;
18526;SDS011;9393;42.158;24.748;2023-04-30T04:58:17;13.53;;;8.63;;
18526;SDS011;9393;42.158;24.748;2023-04-30T05:01:20;12.80;;;7.83;;
18526;SDS011;9393;42.158;24.748;2023-04-30T05:04:26;12.90;;;8.40;;
18526;SDS011;9393;42.158;24.748;2023-04-30T05:07:31;10.43;;;7.57;;
18526;SDS011;9393;42.158;24.748;2023-04-30T05:10:36;11.63;;;7.30;;
18526;SDS011;9393;42.158;24.748;2023-04-30T05:13:41;13.63;;;8.33;;
18526;SDS011;9393;42.158;24.748;2023-04-30T05:16:45;8.97;;;7.50;;
18526;SDS011;9393;42.158;24.748;2023-04-30T05:19:51;10.13;;;7.20;;
18526;SDS011;9393;42.158;24.748;2023-04-30T05:22:56;12.30;;;7.77;;
18526;SDS011;9393;42.158;24.748;2023-04-30T05:26:00;11.77;;;7.77;;
18526;SDS011;9393;42.158;24.748;2023-04-30T05:29:04;14.83;;;7.90;;
18526;SDS011;9393;42.158;24.748;2023-04-30T05:32:08;10.97;;;8.17;;
18526;SDS011;9393;42.158;24.748;2023-04-30T05:35:13;11.63;;;7.97;;
18526;SDS011;9393;42.158;24.748;2023-04-30T05:38:17;13.27;;;7.10;;
18526;SDS011;9393;42.158;24.748;2023-04-30T05:41:21;9.90;;;7.03;;
18526;SDS011;9393;42.158;24.748;2023-04-30T05:44:25;12.70;;;7.13;;
18526;SDS011;9393;42.158;24.748;2023-04-30T05:47:31;11.23;;;7.57;;
18526;SDS011;9393;42.158;24.748;2023-04-30T05:50:36;10.13;;;7.13;;
18526;SDS011;9393;42.158;24.748;2023-04-30T05:53:40;9.90;;;7.60;;
18526;SDS011;9393;42.158;24.748;2023-04-30T05:56:44;10.17;;;7.07;;
18526;SDS011;9393;42.158;24.748;2023-04-30T05:59:47;11.00;;;7.10;;
18526;SDS011;9393;42.158;24.748;2023-04-30T06:02:51;8.90;;;6.17;;
18526;SDS011;9393;42.158;24.748;2023-04-30T06:05:57;8.50;;;6.83;;
18526;SDS011;9393;42.158;24.748;2023-04-30T06:09:01;8.00;;;6.43;;
18526;SDS011;9393;42.158;24.748;2023-04-30T06:12:05;8.17;;;6.17;;
18526;SDS011;9393;42.158;24.748;2023-04-30T06:15:09;8.43;;;5.77;;
18526;SDS011;9393;42.158;24.748;2023-04-30T06:18:13;12.07;;;6.20;;
18526;SDS011;9393;42.158;24.748;2023-04-30T06:21:18;10.00;;;7.10;;
18526;SDS011;9393;42.158;24.748;2023-04-30T06:24:22;15.63;;;10.60;;
18526;SDS011;9393;42.158;24.748;2023-04-30T06:27:28;13.17;;;7.60;;
18526;SDS011;9393;42.158;24.748;2023-04-30T06:30:33;9.90;;;7.17;;
18526;SDS011;9393;42.158;24.748;2023-04-30T06:33:37;10.23;;;7.27;;
18526;SDS011;9393;42.158;24.748;2023-04-30T06:36:42;8.20;;;6.47;;
18526;SDS011;9393;42.158;24.748;2023-04-30T06:39:46;7.47;;;5.83;;
18526;SDS011;9393;42.158;24.748;2023-04-30T06:42:50;8.97;;;7.83;;
18526;SDS011;9393;42.158;24.748;2023-04-30T06:45:55;8.30;;;5.87;;
18526;SDS011;9393;42.158;24.748;2023-04-30T06:48:59;8.57;;;6.00;;
18526;SDS011;9393;42.158;24.748;2023-04-30T06:52:04;6.27;;;5.50;;
18526;SDS011;9393;42.158;24.748;2023-04-30T06:55:08;6.90;;;5.00;;
18526;SDS011;9393;42.158;24.748;2023-04-30T06:58:13;6.27;;;4.87;;
18526;SDS011;9393;42.158;24.748;2023-04-30T07:01:17;6.87;;;5.00;;
18526;SDS011;9393;42.158;24.748;2023-04-30T07:04:21;8.73;;;4.50;;
18526;SDS011;9393;42.158;24.748;2023-04-30T07:07:27;8.37;;;4.87;;
18526;SDS011;9393;42.158;24.748;2023-04-30T07:10:32;4.93;;;4.20;;
18526;SDS011;9393;42.158;24.748;2023-04-30T07:13:35;7.60;;;4.47;;
18526;SDS011;9393;42.158;24.748;2023-04-30T07:16:39;7.57;;;4.70;;
18526;SDS011;9393;42.158;24.748;2023-04-30T07:19:43;5.40;;;4.47;;
18526;SDS011;9393;42.158;24.748;2023-04-30T07:22:48;9.30;;;4.90;;
18526;SDS011;9393;42.158;24.748;2023-04-30T07:25:52;6.60;;;4.50;;
18526;SDS011;9393;42.158;24.748;2023-04-30T07:28:55;7.87;;;4.40;;
18526;SDS011;9393;42.158;24.748;2023-04-30T07:31:59;6.07;;;4.50;;
18526;SDS011;9393;42.158;24.748;2023-04-30T07:35:04;8.03;;;4.40;;
18526;SDS011;9393;42.158;24.748;2023-04-30T07:38:09;6.17;;;4.10;;
18526;SDS011;9393;42.158;24.748;2023-04-30T07:41:13;12.47;;;4.70;;
18526;SDS011;9393;42.158;24.748;2023-04-30T07:44:17;6.87;;;3.90;;
18526;SDS011;9393;42.158;24.748;2023-04-30T07:47:22;5.37;;;3.87;;
18526;SDS011;9393;42.158;24.748;2023-04-30T07:50:26;7.10;;;4.37;;
18526;SDS011;9393;42.158;24.748;2023-04-30T07:53:36;3.87;;;3.43;;
18526;SDS011;9393;42.158;24.748;2023-04-30T07:56:40;5.83;;;3.53;;
18526;SDS011;9393;42.158;24.748;2023-04-30T07:59:44;4.57;;;3.63;;
18526;SDS011;9393;42.158;24.748;2023-04-30T08:02:50;5.60;;;4.07;;
18526;SDS011;9393;42.158;24.748;2023-04-30T08:05:54;5.97;;;4.15;;
18526;SDS011;9393;42.158;24.748;2023-04-30T08:09:00;5.60;;;4.03;;
18526;SDS011;9393;42.158;24.748;2023-04-30T08:12:04;4.80;;;3.75;;
18526;SDS011;9393;42.158;24.748;2023-04-30T08:15:08;8.20;;;3.97;;
18526;SDS011;9393;42.158;24.748;2023-04-30T08:18:12;6.75;;;3.60;;
18526;SDS011;9393;42.158;24.748;2023-04-30T08:21:16;5.07;;;3.72;;
18526;SDS011;9393;42.158;24.748;2023-04-30T08:24:21;6.82;;;3.75;;
18526;SDS011;9393;42.158;24.748;2023-04-30T08:27:25;8.00;;;3.28;;
18526;SDS011;9393;42.158;24.748;2023-04-30T08:30:28;6.57;;;3.40;;
18526;SDS011;9393;42.158;24.748;2023-04-30T08:33:32;4.47;;;3.33;;
18526;SDS011;9393;42.158;24.748;2023-04-30T08:36:36;6.15;;;4.10;;
18526;SDS011;9393;42.158;24.748;2023-04-30T08:39:41;3.95;;;3.22;;
18526;SDS011;9393;42.158;24.748;2023-04-30T08:42:48;5.60;;;3.83;;
18526;SDS011;9393;42.158;24.748;2023-04-30T08:45:58;5.05;;;3.60;;
18526;SDS011;9393;42.158;24.748;2023-04-30T08:49:02;5.85;;;3.13;;
18526;SDS011;9393;42.158;24.748;2023-04-30T08:52:06;5.78;;;3.33;;
18526;SDS011;9393;42.158;24.748;2023-04-30T08:55:11;4.15;;;3.50;;
18526;SDS011;9393;42.158;24.748;2023-04-30T08:58:15;5.72;;;3.28;;
18526;SDS011;9393;42.158;24.748;2023-04-30T09:01:19;4.47;;;2.60;;
18526;SDS011;9393;42.158;24.748;2023-04-30T09:04:24;4.32;;;3.03;;
18526;SDS011;9393;42.158;24.748;2023-04-30T09:07:28;4.32;;;3.10;;
18526;SDS011;9393;42.158;24.748;2023-04-30T09:10:39;4.43;;;3.03;;
18526;SDS011;9393;42.158;24.748;2023-04-30T09:13:43;4.07;;;2.85;;
18526;SDS011;9393;42.158;24.748;2023-04-30T09:16:48;4.25;;;3.10;;
18526;SDS011;9393;42.158;24.748;2023-04-30T09:19:53;5.10;;;3.35;;
18526;SDS011;9393;42.158;24.748;2023-04-30T09:23:08;5.70;;;2.65;;
18526;SDS011;9393;42.158;24.748;2023-04-30T09:26:18;4.07;;;2.88;;
18526;SDS011;9393;42.158;24.748;2023-04-30T09:29:30;6.70;;;3.05;;
18526;SDS011;9393;42.158;24.748;2023-04-30T09:32:48;4.53;;;2.70;;
18526;SDS011;9393;42.158;24.748;2023-04-30T09:35:57;6.93;;;2.95;;
18526;SDS011;9393;42.158;24.748;2023-04-30T09:39:11;6.53;;;2.92;;
18526;SDS011;9393;42.158;24.748;2023-04-30T09:42:19;6.05;;;2.90;;
18526;SDS011;9393;42.158;24.748;2023-04-30T09:45:24;4.47;;;2.90;;
18526;SDS011;9393;42.158;24.748;2023-04-30T09:48:28;5.75;;;3.03;;
18526;SDS011;9393;42.158;24.748;2023-04-30T09:51:32;5.00;;;3.00;;
18526;SDS011;9393;42.158;24.748;2023-04-30T09:54:36;5.40;;;2.80;;
18526;SDS011;9393;42.158;24.748;2023-04-30T09:57:42;4.30;;;2.60;;
18526;SDS011;9393;42.158;24.748;2023-04-30T10:00:46;3.53;;;2.80;;
18526;SDS011;9393;42.158;24.748;2023-04-30T10:03:52;6.10;;;2.97;;
18526;SDS011;9393;42.158;24.748;2023-04-30T10:06:56;3.95;;;3.25;;
18526;SDS011;9393;42.158;24.748;2023-04-30T10:10:02;6.25;;;3.25;;
18526;SDS011;9393;42.158;24.748;2023-04-30T10:13:13;4.78;;;2.88;;
18526;SDS011;9393;42.158;24.748;2023-04-30T10:16:23;6.28;;;3.40;;
18526;SDS011;9393;42.158;24.748;2023-04-30T10:19:33;4.88;;;2.90;;
18526;SDS011;9393;42.158;24.748;2023-04-30T10:22:38;7.45;;;3.90;;
18526;SDS011;9393;42.158;24.748;2023-04-30T10:25:44;6.97;;;3.25;;
18526;SDS011;9393;42.158;24.748;2023-04-30T10:28:50;8.15;;;3.63;;
18526;SDS011;9393;42.158;24.748;2023-04-30T10:31:57;4.03;;;3.05;;
18526;SDS011;9393;42.158;24.748;2023-04-30T10:35:04;4.82;;;3.20;;
18526;SDS011;9393;42.158;24.748;2023-04-30T10:38:17;6.75;;;2.92;;
18526;SDS011;9393;42.158;24.748;2023-04-30T10:41:26;3.92;;;2.70;;
18526;SDS011;9393;42.158;24.748;2023-04-30T10:44:32;4.72;;;2.60;;
18526;SDS011;9393;42.158;24.748;2023-04-30T10:47:37;5.75;;;2.80;;
18526;SDS011;9393;42.158;24.748;2023-04-30T10:50:47;5.18;;;3.60;;
18526;SDS011;9393;42.158;24.748;2023-04-30T10:53:53;6.13;;;2.88;;
18526;SDS011;9393;42.158;24.748;2023-04-30T10:57:08;4.65;;;3.22;;
18526;SDS011;9393;42.158;24.748;2023-04-30T11:00:23;4.13;;;2.80;;
18526;SDS011;9393;42.158;24.748;2023-04-30T11:03:28;5.00;;;3.35;;
18526;SDS011;9393;42.158;24.748;2023-04-30T11:06:48;6.72;;;3.20;;
18526;SDS011;9393;42.158;24.748;2023-04-30T11:09:57;5.40;;;2.88;;
18526;SDS011;9393;42.158;24.748;2023-04-30T11:13:02;4.57;;;3.10;;
18526;SDS011;9393;42.158;24.748;2023-04-30T11:16:09;6.95;;;3.47;;
18526;SDS011;9393;42.158;24.748;2023-04-30T11:19:13;5.15;;;3.00;;
18526;SDS011;9393;42.158;24.748;2023-04-30T11:22:19;5.80;;;3.30;;
18526;SDS011;9393;42.158;24.748;2023-04-30T11:25:25;4.07;;;2.65;;
18526;SDS011;9393;42.158;24.748;2023-04-30T11:28:48;5.32;;;2.58;;
18526;SDS011;9393;42.158;24.748;2023-04-30T11:31:56;8.45;;;3.33;;
18526;SDS011;9393;42.158;24.748;2023-04-30T11:35:03;6.18;;;3.33;;
18526;SDS011;9393;42.158;24.748;2023-04-30T11:38:08;6.68;;;2.95;;
18526;SDS011;9393;42.158;24.748;2023-04-30T11:41:14;6.03;;;3.65;;
18526;SDS011;9393;42.158;24.748;2023-04-30T11:44:21;5.20;;;2.85;;
18526;SDS011;9393;42.158;24.748;2023-04-30T11:47:27;4.85;;;2.90;;
18526;SDS011;9393;42.158;24.748;2023-04-30T11:50:41;4.28;;;2.80;;
18526;SDS011;9393;42.158;24.748;2023-04-30T11:53:45;4.72;;;2.78;;
18526;SDS011;9393;42.158;24.748;2023-04-30T11:56:50;3.83;;;2.92;;
18526;SDS011;9393;42.158;24.748;2023-04-30T11:59:54;3.70;;;2.90;;
18526;SDS011;9393;42.158;24.748;2023-04-30T12:02:59;4.85;;;2.65;;
18526;SDS011;9393;42.158;24.748;2023-04-30T12:06:04;3.72;;;2.60;;
18526;SDS011;9393;42.158;24.748;2023-04-30T12:09:08;3.78;;;2.78;;
18526;SDS011;9393;42.158;24.748;2023-04-30T12:12:12;4.05;;;3.13;;
18526;SDS011;9393;42.158;24.748;2023-04-30T12:15:16;3.38;;;2.20;;
18526;SDS011;9393;42.158;24.748;2023-04-30T12:18:25;7.50;;;2.90;;
18526;SDS011;9393;42.158;24.748;2023-04-30T12:21:29;4.20;;;3.20;;
18526;SDS011;9393;42.158;24.748;2023-04-30T12:24:33;4.82;;;2.80;;
18526;SDS011;9393;42.158;24.748;2023-04-30T12:27:37;4.55;;;3.33;;
18526;SDS011;9393;42.158;24.748;2023-04-30T12:30:41;16.13;;;4.85;;
18526;SDS011;9393;42.158;24.748;2023-04-30T12:33:55;30.23;;;17.70;;
18526;SDS011;9393;42.158;24.748;2023-04-30T12:36:59;15.20;;;4.95;;
18526;SDS011;9393;42.158;24.748;2023-04-30T12:40:05;22.77;;;12.32;;
18526;SDS011;9393;42.158;24.748;2023-04-30T12:43:13;26.95;;;18.80;;
18526;SDS011;9393;42.158;24.748;2023-04-30T12:46:24;7.53;;;3.63;;
18526;SDS011;9393;42.158;24.748;2023-04-30T12:49:32;6.95;;;4.55;;
18526;SDS011;9393;42.158;24.748;2023-04-30T12:52:37;8.25;;;4.43;;
18526;SDS011;9393;42.158;24.748;2023-04-30T12:55:41;5.47;;;2.93;;
18526;SDS011;9393;42.158;24.748;2023-04-30T12:58:46;2.60;;;2.10;;
18526;SDS011;9393;42.158;24.748;2023-04-30T13:01:52;8.77;;;6.43;;
18526;SDS011;9393;42.158;24.748;2023-04-30T13:04:58;18.90;;;11.37;;
18526;SDS011;9393;42.158;24.748;2023-04-30T13:08:02;16.40;;;10.63;;
18526;SDS011;9393;42.158;24.748;2023-04-30T13:11:07;6.47;;;3.50;;
18526;SDS011;9393;42.158;24.748;2023-04-30T13:14:12;5.33;;;3.53;;
18526;SDS011;9393;42.158;24.748;2023-04-30T13:17:16;7.23;;;4.93;;
18526;SDS011;9393;42.158;24.748;2023-04-30T13:20:21;9.80;;;4.77;;
18526;SDS011;9393;42.158;24.748;2023-04-30T13:23:26;7.10;;;2.57;;
18526;SDS011;9393;42.158;24.748;2023-04-30T13:26:32;4.23;;;2.90;;
18526;SDS011;9393;42.158;24.748;2023-04-30T13:29:36;12.93;;;6.13;;
18526;SDS011;9393;42.158;24.748;2023-04-30T13:32:39;11.97;;;5.37;;
18526;SDS011;9393;42.158;24.748;2023-04-30T13:35:45;10.93;;;4.63;;
18526;SDS011;9393;42.158;24.748;2023-04-30T13:38:50;10.03;;;4.20;;
18526;SDS011;9393;42.158;24.748;2023-04-30T13:41:54;8.73;;;4.60;;
18526;SDS011;9393;42.158;24.748;2023-04-30T13:44:58;7.17;;;4.10;;
18526;SDS011;9393;42.158;24.748;2023-04-30T13:48:01;6.10;;;4.20;;
18526;SDS011;9393;42.158;24.748;2023-04-30T13:51:07;9.33;;;4.07;;
18526;SDS011;9393;42.158;24.748;2023-04-30T13:54:11;9.20;;;5.73;;
18526;SDS011;9393;42.158;24.748;2023-04-30T13:57:14;4.60;;;3.53;;
18526;SDS011;9393;42.158;24.748;2023-04-30T14:00:18;5.00;;;3.57;;
18526;SDS011;9393;42.158;24.748;2023-04-30T14:03:23;5.83;;;3.87;;
18526;SDS011;9393;42.158;24.748;2023-04-30T14:06:28;4.70;;;3.10;;
18526;SDS011;9393;42.158;24.748;2023-04-30T14:09:33;6.07;;;3.73;;
18526;SDS011;9393;42.158;24.748;2023-04-30T14:12:37;4.47;;;3.37;;
18526;SDS011;9393;42.158;24.748;2023-04-30T14:15:41;7.37;;;4.40;;
18526;SDS011;9393;42.158;24.748;2023-04-30T14:18:45;2.70;;;2.27;;
18526;SDS011;9393;42.158;24.748;2023-04-30T14:21:50;5.20;;;2.77;;
18526;SDS011;9393;42.158;24.748;2023-04-30T14:24:54;5.93;;;3.87;;
18526;SDS011;9393;42.158;24.748;2023-04-30T14:27:58;8.37;;;4.60;;
18526;SDS011;9393;42.158;24.748;2023-04-30T14:31:02;6.70;;;4.77;;
18526;SDS011;9393;42.158;24.748;2023-04-30T14:34:06;6.13;;;4.70;;
18526;SDS011;9393;42.158;24.748;2023-04-30T14:37:11;8.70;;;4.73;;
18526;SDS011;9393;42.158;24.748;2023-04-30T14:40:16;9.13;;;5.10;;
18526;SDS011;9393;42.158;24.748;2023-04-30T14:43:21;9.93;;;4.90;;
18526;SDS011;9393;42.158;24.748;2023-04-30T14:46:25;6.53;;;4.77;;
18526;SDS011;9393;42.158;24.748;2023-04-30T14:49:29;6.47;;;4.77;;
18526;SDS011;9393;42.158;24.748;2023-04-30T14:52:35;6.93;;;4.10;;
18526;SDS011;9393;42.158;24.748;2023-04-30T14:55:39;6.10;;;4.40;;
18526;SDS011;9393;42.158;24.748;2023-04-30T14:58:43;4.93;;;3.50;;
18526;SDS011;9393;42.158;24.748;2023-04-30T15:01:46;8.33;;;3.07;;
18526;SDS011;9393;42.158;24.748;2023-04-30T15:04:50;5.47;;;3.00;;
18526;SDS011;9393;42.158;24.748;2023-04-30T15:07:56;4.77;;;3.30;;
18526;SDS011;9393;42.158;24.748;2023-04-30T15:10:59;5.65;;;3.50;;
18526;SDS011;9393;42.158;24.748;2023-04-30T15:14:04;5.60;;;3.38;;
18526;SDS011;9393;42.158;24.748;2023-04-30T15:17:08;4.38;;;2.60;;
18526;SDS011;9393;42.158;24.748;2023-04-30T15:20:12;2.67;;;2.30;;
18526;SDS011;9393;42.158;24.748;2023-04-30T15:23:17;2.38;;;2.13;;
18526;SDS011;9393;42.158;24.748;2023-04-30T15:26:21;6.60;;;2.40;;
18526;SDS011;9393;42.158;24.748;2023-04-30T15:29:26;2.25;;;1.83;;
18526;SDS011;9393;42.158;24.748;2023-04-30T15:32:29;6.10;;;2.30;;
18526;SDS011;9393;42.158;24.748;2023-04-30T15:35:33;2.60;;;2.10;;
18526;SDS011;9393;42.158;24.748;2023-04-30T15:38:38;5.47;;;1.90;;
18526;SDS011;9393;42.158;24.748;2023-04-30T15:41:42;3.30;;;2.35;;
18526;SDS011;9393;42.158;24.748;2023-04-30T15:44:46;3.10;;;1.83;;
18526;SDS011;9393;42.158;24.748;2023-04-30T15:47:50;1.80;;;1.42;;
18526;SDS011;9393;42.158;24.748;2023-04-30T15:50:54;3.05;;;1.67;;
18526;SDS011;9393;42.158;24.748;2023-04-30T15:54:00;3.97;;;2.45;;
18526;SDS011;9393;42.158;24.748;2023-04-30T15:57:04;4.50;;;3.53;;
18526;SDS011;9393;42.158;24.748;2023-04-30T16:00:08;4.53;;;3.10;;
18526;SDS011;9393;42.158;24.748;2023-04-30T16:03:15;5.33;;;2.80;;
18526;SDS011;9393;42.158;24.748;2023-04-30T16:06:19;3.47;;;2.20;;
18526;SDS011;9393;42.158;24.748;2023-04-30T16:09:25;3.40;;;2.45;;
18526;SDS011;9393;42.158;24.748;2023-04-30T16:12:28;3.73;;;1.90;;
18526;SDS011;9393;42.158;24.748;2023-04-30T16:15:32;3.70;;;1.83;;
18526;SDS011;9393;42.158;24.748;2023-04-30T16:18:36;2.27;;;1.83;;
18526;SDS011;9393;42.158;24.748;2023-04-30T16:21:40;4.03;;;2.10;;
18526;SDS011;9393;42.158;24.748;2023-04-30T16:24:45;2.77;;;2.20;;
18526;SDS011;9393;42.158;24.748;2023-04-30T16:27:49;2.00;;;1.67;;
18526;SDS011;9393;42.158;24.748;2023-04-30T16:30:53;2.70;;;2.30;;
18526;SDS011;9393;42.158;24.748;2023-04-30T16:33:57;3.27;;;2.20;;
18526;SDS011;9393;42.158;24.748;2023-04-30T16:37:00;6.20;;;2.40;;
18526;SDS011;9393;42.158;24.748;2023-04-30T16:40:06;2.90;;;2.40;;
18526;SDS011;9393;42.158;24.748;2023-04-30T16:43:11;6.47;;;2.73;;
18526;SDS011;9393;42.158;24.748;2023-04-30T16:46:14;4.53;;;3.00;;
18526;SDS011;9393;42.158;24.748;2023-04-30T16:49:18;3.53;;;2.73;;
18526;SDS011;9393;42.158;24.748;2023-04-30T16:52:23;5.30;;;3.20;;
18526;SDS011;9393;42.158;24.748;2023-04-30T16:55:28;8.30;;;2.77;;
18526;SDS011;9393;42.158;24.748;2023-04-30T16:58:32;5.17;;;3.10;;
18526;SDS011;9393;42.158;24.748;2023-04-30T17:01:36;5.40;;;3.67;;
18526;SDS011;9393;42.158;24.748;2023-04-30T17:04:40;4.13;;;3.23;;
18526;SDS011;9393;42.158;24.748;2023-04-30T17:07:44;4.20;;;3.10;;
18526;SDS011;9393;42.158;24.748;2023-04-30T17:10:49;7.53;;;2.90;;
18526;SDS011;9393;42.158;24.748;2023-04-30T17:13:53;5.33;;;2.90;;
18526;SDS011;9393;42.158;24.748;2023-04-30T17:16:57;4.77;;;2.97;;
18526;SDS011;9393;42.158;24.748;2023-04-30T17:20:01;3.97;;;2.90;;
18526;SDS011;9393;42.158;24.748;2023-04-30T17:23:05;3.93;;;3.00;;
18526;SDS011;9393;42.158;24.748;2023-04-30T17:26:10;6.00;;;3.50;;
18526;SDS011;9393;42.158;24.748;2023-04-30T17:29:14;5.93;;;3.30;;
18526;SDS011;9393;42.158;24.748;2023-04-30T17:32:19;6.53;;;3.57;;
18526;SDS011;9393;42.158;24.748;2023-04-30T17:35:23;4.53;;;3.10;;
18526;SDS011;9393;42.158;24.748;2023-04-30T17:38:26;4.50;;;3.57;;
18526;SDS011;9393;42.158;24.748;2023-04-30T17:41:32;5.43;;;4.00;;
18526;SDS011;9393;42.158;24.748;2023-04-30T17:44:35;6.50;;;3.57;;
18526;SDS011;9393;42.158;24.748;2023-04-30T17:47:39;5.23;;;3.10;;
18526;SDS011;9393;42.158;24.748;2023-04-30T17:50:43;5.20;;;3.63;;
18526;SDS011;9393;42.158;24.748;2023-04-30T17:53:47;6.90;;;3.60;;
18526;SDS011;9393;42.158;24.748;2023-04-30T17:56:52;7.70;;;3.73;;
18526;SDS011;9393;42.158;24.748;2023-04-30T17:59:56;6.87;;;3.57;;
18526;SDS011;9393;42.158;24.748;2023-04-30T18:03:00;4.17;;;3.20;;
18526;SDS011;9393;42.158;24.748;2023-04-30T18:06:06;6.20;;;3.63;;
18526;SDS011;9393;42.158;24.748;2023-04-30T18:09:10;4.13;;;2.90;;
18526;SDS011;9393;42.158;24.748;2023-04-30T18:12:15;5.33;;;3.23;;
18526;SDS011;9393;42.158;24.748;2023-04-30T18:15:19;5.27;;;3.30;;
18526;SDS011;9393;42.158;24.748;2023-04-30T18:18:23;4.37;;;3.30;;
18526;SDS011;9393;42.158;24.748;2023-04-30T18:21:27;5.27;;;3.07;;
18526;SDS011;9393;42.158;24.748;2023-04-30T18:24:31;3.67;;;3.23;;
18526;SDS011;9393;42.158;24.748;2023-04-30T18:27:36;6.50;;;3.30;;
18526;SDS011;9393;42.158;24.748;2023-04-30T18:30:40;6.07;;;3.40;;